Time;durP1;ratioP1;P1;durP2;ratioP2;P2;SDS_P1;SDS_P2;PMS_P1;PMS_P2;Temp;Humidity;BMP_temperature;BMP_pressure;BME280_temperature;BME280_humidity;BME280_pressure;Samples;Min_cycle;Max_cycle;Signal;HPM_P1;HPM_P2
2021/12/06 00:01:42;;;;;;;35.50;32.57;;;4.60;99.90;;;;;;5055305;28;20466;-70
2021/12/06 00:04:12;;;;;;;37.20;33.90;;;4.60;99.90;;;;;;5056323;28;20814;-72
2021/12/06 00:06:42;;;;;;;36.93;33.73;;;4.70;99.90;;;;;;5059949;28;20463;-70
2021/12/06 00:09:12;;;;;;;37.80;34.70;;;4.60;99.90;;;;;;5052106;28;20495;-72
2021/12/06 00:11:41;;;;;;;40.10;36.10;;;4.60;99.90;;;;;;5055459;28;20464;-69
2021/12/06 00:14:09;;;;;;;39.03;35.33;;;4.60;99.90;;;;;;5063270;28;21017;-69
2021/12/06 00:16:36;;;;;;;37.10;33.60;;;4.60;99.90;;;;;;5055875;28;20578;-71
2021/12/06 00:19:03;;;;;;;37.07;33.47;;;4.60;99.90;;;;;;5057529;28;20516;-69
2021/12/06 00:21:30;;;;;;;38.50;34.57;;;4.60;99.90;;;;;;5054613;28;20470;-71
2021/12/06 00:23:57;;;;;;;36.03;33.00;;;4.70;99.90;;;;;;5060610;28;20463;-72
2021/12/06 00:26:24;;;;;;;36.70;33.30;;;4.70;99.90;;;;;;5057364;28;20465;-69
2021/12/06 00:28:57;;;;;;;36.17;32.80;;;4.60;99.90;;;;;;5056715;28;20484;-68
2021/12/06 00:31:25;;;;;;;35.37;31.90;;;4.60;99.90;;;;;;5055345;28;21040;-72
2021/12/06 00:33:58;;;;;;;37.17;34.03;;;4.60;99.90;;;;;;5050189;28;20455;-71
2021/12/06 00:36:28;;;;;;;36.60;33.20;;;4.50;99.90;;;;;;5055309;28;20466;-71
2021/12/06 00:38:55;;;;;;;39.43;34.60;;;4.50;99.90;;;;;;5056478;28;20856;-69
2021/12/06 00:41:22;;;;;;;36.60;33.40;;;4.50;99.90;;;;;;5061198;28;20549;-70
2021/12/06 00:43:49;;;;;;;37.37;33.87;;;4.50;99.90;;;;;;5052304;28;20562;-70
2021/12/06 00:46:17;;;;;;;35.73;32.60;;;4.60;99.90;;;;;;5058680;28;20474;-67
2021/12/06 00:48:44;;;;;;;35.17;31.70;;;4.60;99.90;;;;;;5054128;28;20463;-69
2021/12/06 00:51:12;;;;;;;37.03;33.70;;;4.50;99.90;;;;;;5056216;28;20512;-71
2021/12/06 00:53:40;;;;;;;35.27;32.07;;;4.50;99.90;;;;;;5056669;28;20463;-69
2021/12/06 00:56:08;;;;;;;34.47;31.13;;;4.40;99.90;;;;;;5056399;28;20498;-71
2021/12/06 00:58:35;;;;;;;35.97;32.77;;;4.50;99.90;;;;;;5054460;28;20482;-71
2021/12/06 01:01:02;;;;;;;36.90;33.60;;;4.50;99.90;;;;;;5058710;28;20466;-69
2021/12/06 01:03:36;;;;;;;35.57;32.53;;;4.50;99.90;;;;;;5052689;28;20462;-69
2021/12/06 01:06:03;;;;;;;34.37;31.27;;;4.50;99.90;;;;;;5057318;28;20517;-71
2021/12/06 01:08:30;;;;;;;35.30;31.70;;;4.40;99.90;;;;;;5050897;28;20470;-69
2021/12/06 01:10:57;;;;;;;35.13;32.23;;;4.40;99.90;;;;;;5055253;28;20490;-70
2021/12/06 01:13:25;;;;;;;35.40;32.43;;;4.40;99.90;;;;;;5058021;28;20463;-70
2021/12/06 01:15:52;;;;;;;35.93;32.20;;;4.40;99.90;;;;;;5058713;28;21133;-69
2021/12/06 01:18:20;;;;;;;35.37;32.30;;;4.50;99.90;;;;;;5060328;28;20469;-69
2021/12/06 01:20:54;;;;;;;36.30;33.00;;;4.50;99.90;;;;;;5057868;28;20460;-71
2021/12/06 01:23:26;;;;;;;35.30;32.50;;;4.60;99.90;;;;;;5055994;28;20487;-68
2021/12/06 01:26:10;;;;;;;33.90;31.20;;;4.60;99.90;;;;;;5051414;28;20483;-69
2021/12/06 01:29:02;;;;;;;35.70;32.90;;;4.50;99.90;;;;;;5052434;28;20476;-68
2021/12/06 01:31:40;;;;;;;34.83;31.83;;;4.50;99.90;;;;;;5058917;28;20834;-71
2021/12/06 01:39:08;;;;;;;35.43;32.43;;;4.50;99.90;;;;;;5053540;28;21232;-70
2021/12/06 01:39:47;;;;;;;35.63;32.80;;;4.40;99.90;;;;;;5058573;28;20490;-70
2021/12/06 01:42:15;;;;;;;34.60;31.87;;;4.40;99.90;;;;;;5056647;28;20469;-71
2021/12/06 01:44:45;;;;;;;35.20;32.23;;;4.50;99.90;;;;;;5055613;28;20491;-69
2021/12/06 01:47:14;;;;;;;34.47;31.57;;;4.40;99.90;;;;;;5055246;28;20819;-71
2021/12/06 01:49:43;;;;;;;34.70;31.80;;;4.50;99.90;;;;;;5048394;28;20599;-71
2021/12/06 01:52:15;;;;;;;34.43;31.70;;;4.30;99.90;;;;;;5056894;28;20466;-69
2021/12/06 01:54:44;;;;;;;35.70;32.67;;;4.20;99.90;;;;;;5056947;28;20551;-68
2021/12/06 01:57:11;;;;;;;37.27;33.13;;;4.10;99.90;;;;;;5053147;28;20455;-69
2021/12/06 01:59:39;;;;;;;36.17;33.07;;;4.00;99.90;;;;;;5051709;28;20466;-69
2021/12/06 02:02:07;;;;;;;36.17;32.80;;;4.00;99.90;;;;;;5062468;28;20463;-69
2021/12/06 02:04:35;;;;;;;36.13;33.00;;;3.90;99.90;;;;;;5051942;28;20463;-71
2021/12/06 02:07:03;;;;;;;36.47;33.30;;;3.80;99.90;;;;;;5061690;28;20455;-69
2021/12/06 02:09:31;;;;;;;36.77;33.70;;;3.90;99.90;;;;;;5057474;28;20490;-69
2021/12/06 02:12:00;;;;;;;35.80;32.87;;;3.90;99.90;;;;;;5060796;28;20467;-69
2021/12/06 02:14:36;;;;;;;36.20;33.10;;;4.00;99.90;;;;;;5055570;28;20465;-69
2021/12/06 02:17:11;;;;;;;36.57;33.37;;;3.90;99.90;;;;;;5059929;28;20469;-70
2021/12/06 02:19:42;;;;;;;38.47;34.87;;;3.80;99.90;;;;;;5059383;28;20521;-69
2021/12/06 02:22:14;;;;;;;37.50;34.20;;;3.80;99.90;;;;;;5058044;28;20487;-71
2021/12/06 02:24:41;;;;;;;37.30;33.90;;;3.80;99.90;;;;;;5063032;28;20459;-71
2021/12/06 02:27:11;;;;;;;37.93;34.40;;;3.80;99.90;;;;;;5059343;28;20463;-69
2021/12/06 02:29:39;;;;;;;39.17;34.57;;;3.80;99.90;;;;;;5060824;28;20503;-72
2021/12/06 02:32:10;;;;;;;38.50;35.07;;;3.90;99.90;;;;;;5063248;28;20474;-72
2021/12/06 02:34:38;;;;;;;39.03;35.20;;;3.90;99.90;;;;;;5057524;28;20737;-67
2021/12/06 02:37:06;;;;;;;39.77;36.37;;;3.90;99.90;;;;;;5058793;28;20463;-69
2021/12/06 02:39:34;;;;;;;37.53;34.23;;;3.90;99.90;;;;;;5055229;28;20486;-70
2021/12/06 02:42:01;;;;;;;38.20;34.87;;;3.90;99.90;;;;;;5059343;28;20636;-70
2021/12/06 02:44:28;;;;;;;40.20;36.20;;;3.90;99.90;;;;;;5054720;28;20483;-68
2021/12/06 02:46:56;;;;;;;38.73;35.40;;;3.90;99.90;;;;;;5059000;28;21010;-68
2021/12/06 02:49:23;;;;;;;38.17;34.47;;;3.90;99.90;;;;;;5051401;28;20461;-69
2021/12/06 02:51:51;;;;;;;37.07;33.77;;;3.90;99.90;;;;;;5058900;28;20459;-67
2021/12/06 02:54:19;;;;;;;39.93;36.07;;;3.90;99.90;;;;;;5056687;28;20478;-69
2021/12/06 02:56:55;;;;;;;38.67;34.97;;;3.90;99.90;;;;;;5057127;28;20485;-69
2021/12/06 02:59:24;;;;;;;39.53;36.07;;;3.80;99.90;;;;;;5055574;28;20451;-71
2021/12/06 03:01:54;;;;;;;38.70;34.80;;;3.90;99.90;;;;;;5060962;28;20462;-70
2021/12/06 03:04:21;;;;;;;38.20;34.60;;;3.90;99.90;;;;;;5059690;28;20469;-69
2021/12/06 03:06:53;;;;;;;37.27;33.93;;;3.90;99.90;;;;;;5058083;28;20903;-71
2021/12/06 03:09:21;;;;;;;38.27;34.70;;;3.80;99.90;;;;;;5055506;28;20501;-69
2021/12/06 03:11:52;;;;;;;39.90;36.03;;;3.60;99.90;;;;;;5054402;28;20468;-70
2021/12/06 03:14:21;;;;;;;42.03;35.93;;;3.60;99.90;;;;;;5057732;28;20551;-68
2021/12/06 03:16:49;;;;;;;39.03;35.73;;;3.60;99.90;;;;;;5058693;28;20455;-71
2021/12/06 03:19:16;;;;;;;38.93;35.03;;;3.60;99.90;;;;;;5058175;28;20456;-71
2021/12/06 03:21:43;;;;;;;39.33;35.67;;;3.50;99.90;;;;;;5057727;28;20945;-70
2021/12/06 03:24:10;;;;;;;38.97;35.57;;;3.50;99.90;;;;;;5056510;28;20495;-70
2021/12/06 03:26:38;;;;;;;36.83;33.53;;;3.50;99.90;;;;;;5053437;28;20459;-71
2021/12/06 03:29:07;;;;;;;39.07;35.27;;;3.50;99.90;;;;;;5053418;28;20830;-68
2021/12/06 03:31:35;;;;;;;39.80;36.27;;;3.40;99.90;;;;;;5064539;28;20846;-70
2021/12/06 03:34:03;;;;;;;38.30;34.93;;;3.40;99.90;;;;;;5057069;28;20871;-71
2021/12/06 03:36:33;;;;;;;39.00;35.03;;;3.30;99.90;;;;;;5054728;28;20466;-71
2021/12/06 03:39:02;;;;;;;40.73;37.10;;;3.20;99.90;;;;;;5057493;28;20574;-69
2021/12/06 03:41:29;;;;;;;39.20;35.93;;;3.10;99.90;;;;;;5059078;28;20468;-67
2021/12/06 03:43:58;;;;;;;39.47;35.70;;;3.00;99.90;;;;;;5056192;28;20487;-68
2021/12/06 03:46:28;;;;;;;40.73;36.93;;;3.00;99.90;;;;;;5057903;28;20467;-67
2021/12/06 03:48:55;;;;;;;38.53;35.33;;;2.90;99.90;;;;;;5059974;28;20471;-71
2021/12/06 03:51:23;;;;;;;39.37;35.77;;;2.90;99.90;;;;;;5055610;28;20492;-68
2021/12/06 03:53:50;;;;;;;40.20;36.63;;;2.80;99.90;;;;;;5054945;28;20547;-67
2021/12/06 03:56:17;;;;;;;41.53;38.13;;;2.80;99.90;;;;;;5055752;28;20462;-70
2021/12/06 03:58:47;;;;;;;39.80;36.40;;;2.90;99.90;;;;;;5055160;28;20555;-70
2021/12/06 04:01:14;;;;;;;42.77;38.50;;;2.80;99.90;;;;;;5059826;28;20458;-71
2021/12/06 04:03:43;;;;;;;44.97;37.80;;;2.70;99.90;;;;;;5054419;28;20570;-70
2021/12/06 04:06:11;;;;;;;39.97;36.13;;;2.60;99.90;;;;;;5060877;28;20467;-70
2021/12/06 04:08:38;;;;;;;83.80;38.30;;;2.60;99.90;;;;;;5055283;28;20471;-68
2021/12/06 04:11:05;;;;;;;120.03;40.40;;;2.50;99.90;;;;;;5065390;28;20483;-70
2021/12/06 04:13:33;;;;;;;50.93;37.93;;;2.50;99.90;;;;;;5056057;28;20463;-70
2021/12/06 04:16:00;;;;;;;137.73;41.47;;;2.50;99.90;;;;;;5055404;28;20471;-69
2021/12/06 04:18:27;;;;;;;385.30;47.80;;;2.50;99.90;;;;;;5062668;28;20467;-69
2021/12/06 04:20:55;;;;;;;319.50;42.77;;;2.40;99.90;;;;;;5051453;28;20463;-71
2021/12/06 04:23:22;;;;;;;229.00;39.83;;;2.40;99.90;;;;;;5052498;28;20468;-68
2021/12/06 04:25:49;;;;;;;254.53;41.57;;;2.40;99.90;;;;;;5054655;28;20714;-69
2021/12/06 04:28:19;;;;;;;286.23;45.43;;;2.30;99.90;;;;;;5059616;28;20470;-70
2021/12/06 04:30:49;;;;;;;272.73;43.60;;;2.30;99.90;;;;;;5056300;28;20491;-67
2021/12/06 04:33:16;;;;;;;81.70;40.63;;;2.30;99.90;;;;;;5060292;28;20470;-71
2021/12/06 04:35:45;;;;;;;163.20;42.47;;;2.20;99.90;;;;;;5053537;28;20471;-68
2021/12/06 04:38:14;;;;;;;178.90;46.60;;;2.10;99.90;;;;;;5054465;28;20474;-71
2021/12/06 04:40:41;;;;;;;137.07;43.43;;;2.00;99.90;;;;;;5054410;28;20462;-71
2021/12/06 04:43:08;;;;;;;331.53;48.50;;;1.90;99.90;;;;;;5052513;28;20467;-68
2021/12/06 04:45:36;;;;;;;386.30;51.47;;;1.90;99.90;;;;;;5053619;28;20483;-70
2021/12/06 04:48:04;;;;;;;399.33;52.97;;;1.80;99.90;;;;;;5051134;28;20512;-67
2021/12/06 04:50:33;;;;;;;411.60;49.77;;;1.90;99.90;;;;;;5056187;28;20476;-68
2021/12/06 04:53:04;;;;;;;279.47;47.50;;;1.90;99.90;;;;;;5055883;28;20507;-70
2021/12/06 04:55:37;;;;;;;195.67;47.17;;;1.90;99.90;;;;;;5054128;28;20464;-68
2021/12/06 04:58:05;;;;;;;212.20;43.93;;;2.00;99.90;;;;;;5056488;28;20486;-70
2021/12/06 05:00:35;;;;;;;398.13;47.97;;;2.10;99.90;;;;;;5051393;28;20822;-71
2021/12/06 05:03:03;;;;;;;343.00;45.10;;;2.10;99.90;;;;;;5051019;28;20464;-68
2021/12/06 05:05:34;;;;;;;400.57;45.60;;;2.10;99.90;;;;;;5060681;28;20461;-68
2021/12/06 05:08:05;;;;;;;721.27;53.20;;;2.10;99.90;;;;;;5051714;28;20471;-68
2021/12/06 05:10:33;;;;;;;263.00;44.27;;;2.10;99.90;;;;;;5053704;28;20502;-68
2021/12/06 05:13:00;;;;;;;132.73;42.17;;;2.10;99.90;;;;;;5052773;28;20460;-70
2021/12/06 05:15:27;;;;;;;247.87;44.67;;;2.10;99.90;;;;;;5052373;28;20463;-71
2021/12/06 05:17:54;;;;;;;197.33;44.30;;;2.10;99.90;;;;;;5052653;28;20471;-68
2021/12/06 05:20:22;;;;;;;220.30;42.23;;;2.10;99.90;;;;;;5057784;28;21061;-70
2021/12/06 05:22:49;;;;;;;641.77;52.37;;;2.10;99.90;;;;;;5049282;28;20459;-69
2021/12/06 05:25:17;;;;;;;624.07;50.77;;;2.00;99.90;;;;;;5055122;28;20464;-71
2021/12/06 05:27:46;;;;;;;298.73;43.03;;;2.00;99.90;;;;;;5054982;28;20558;-67
2021/12/06 05:30:14;;;;;;;375.83;44.90;;;2.10;99.90;;;;;;5058597;28;20495;-70
2021/12/06 05:32:42;;;;;;;686.10;51.80;;;2.10;99.90;;;;;;5054457;28;20466;-67
2021/12/06 05:35:11;;;;;;;340.83;47.80;;;2.10;99.90;;;;;;5053626;28;20463;-70
2021/12/06 05:37:41;;;;;;;555.13;51.40;;;2.00;99.90;;;;;;5054875;28;20467;-71
2021/12/06 05:40:11;;;;;;;446.60;47.50;;;2.00;99.90;;;;;;5049159;28;20505;-69
2021/12/06 05:42:38;;;;;;;355.20;45.03;;;2.00;99.90;;;;;;5055400;28;20475;-72
2021/12/06 05:45:08;;;;;;;155.97;41.87;;;2.00;99.90;;;;;;5055760;28;20492;-69
2021/12/06 05:47:38;;;;;;;179.70;42.80;;;1.90;99.90;;;;;;5052224;28;20546;-69
2021/12/06 05:50:06;;;;;;;283.17;44.80;;;1.60;99.90;;;;;;5049629;28;20458;-69
2021/12/06 05:52:33;;;;;;;275.80;45.07;;;1.50;99.90;;;;;;5047725;28;20544;-69
2021/12/06 05:55:00;;;;;;;178.53;41.43;;;1.60;99.90;;;;;;5055316;28;20469;-69
2021/12/06 05:57:27;;;;;;;234.40;43.60;;;1.50;99.90;;;;;;5052752;28;20473;-69
2021/12/06 05:59:54;;;;;;;104.37;39.80;;;1.50;99.90;;;;;;5056357;28;20475;-68
2021/12/06 06:02:22;;;;;;;72.50;41.10;;;1.50;99.90;;;;;;5055131;28;20451;-69
2021/12/06 06:04:50;;;;;;;91.30;41.10;;;1.50;99.90;;;;;;5055902;28;20467;-70
2021/12/06 06:07:17;;;;;;;60.33;40.00;;;1.50;99.90;;;;;;5049139;28;20458;-68
2021/12/06 06:09:45;;;;;;;169.37;42.60;;;1.50;99.90;;;;;;5058836;28;20847;-70
2021/12/06 06:12:12;;;;;;;225.87;44.47;;;1.30;99.90;;;;;;5054651;28;20515;-68
2021/12/06 06:14:38;;;;;;;347.77;46.10;;;1.20;99.90;;;;;;5057378;28;20473;-67
2021/12/06 06:17:10;;;;;;;157.73;41.97;;;1.20;99.90;;;;;;5055994;28;20836;-67
2021/12/06 06:19:43;;;;;;;266.13;46.50;;;1.20;99.90;;;;;;5050269;28;20546;-67
2021/12/06 06:22:10;;;;;;;105.83;41.70;;;1.20;99.90;;;;;;5047595;28;20462;-67
2021/12/06 06:24:37;;;;;;;94.70;41.53;;;1.30;99.90;;;;;;5059443;28;20463;-68
2021/12/06 06:27:05;;;;;;;83.10;41.93;;;1.30;99.90;;;;;;5057804;28;20495;-67
2021/12/06 06:29:32;;;;;;;116.97;42.73;;;1.30;99.90;;;;;;5053602;28;20463;-68
2021/12/06 06:31:59;;;;;;;171.93;47.63;;;1.30;99.90;;;;;;5057342;28;20497;-67
2021/12/06 06:34:26;;;;;;;146.70;44.50;;;1.40;99.90;;;;;;5050490;28;20465;-68
2021/12/06 06:36:55;;;;;;;521.07;52.30;;;1.40;99.90;;;;;;5052359;28;20466;-67
2021/12/06 06:39:22;;;;;;;680.70;53.70;;;1.50;99.90;;;;;;5054045;28;20486;-67
2021/12/06 06:41:50;;;;;;;479.47;51.33;;;1.60;99.90;;;;;;5047753;28;20793;-68
2021/12/06 06:44:17;;;;;;;322.10;48.73;;;1.60;99.90;;;;;;5061444;28;20486;-68
2021/12/06 06:46:45;;;;;;;901.87;59.10;;;1.70;99.90;;;;;;5055402;28;20557;-67
2021/12/06 06:49:12;;;;;;;288.37;44.57;;;1.70;99.90;;;;;;5058079;28;20473;-67
2021/12/06 06:51:39;;;;;;;461.90;48.77;;;1.70;99.90;;;;;;5067549;28;20494;-68
2021/12/06 06:54:08;;;;;;;646.13;51.70;;;1.60;99.90;;;;;;5057821;28;20506;-68
2021/12/06 06:56:35;;;;;;;425.63;50.27;;;1.60;99.90;;;;;;5049227;28;20472;-67
2021/12/06 06:59:03;;;;;;;644.97;55.70;;;1.50;99.90;;;;;;5060343;28;20984;-68
2021/12/06 07:01:30;;;;;;;363.43;45.63;;;1.50;99.90;;;;;;5055513;28;20470;-68
2021/12/06 07:03:58;;;;;;;328.63;49.47;;;1.50;99.90;;;;;;5058846;28;20524;-68
2021/12/06 07:06:26;;;;;;;356.97;47.80;;;1.30;99.90;;;;;;5056651;28;20866;-67
2021/12/06 07:08:56;;;;;;;802.63;62.23;;;1.10;99.90;;;;;;5057862;28;20562;-67
2021/12/06 07:11:25;;;;;;;452.13;50.20;;;1.20;99.90;;;;;;5053761;28;20481;-68
2021/12/06 07:13:52;;;;;;;486.37;50.17;;;1.20;99.90;;;;;;5051980;28;20455;-67
2021/12/06 07:16:19;;;;;;;333.07;45.50;;;1.10;99.90;;;;;;5054485;28;20481;-68
2021/12/06 07:18:47;;;;;;;468.13;49.27;;;1.20;99.90;;;;;;5055461;28;21067;-68
2021/12/06 07:21:14;;;;;;;361.23;44.93;;;1.20;99.90;;;;;;5048613;28;20471;-68
2021/12/06 07:23:43;;;;;;;224.90;47.67;;;1.20;99.90;;;;;;5047541;28;20825;-67
2021/12/06 07:26:13;;;;;;;178.07;46.03;;;1.20;99.90;;;;;;5056446;28;21034;-68
2021/12/06 07:28:43;;;;;;;280.33;48.03;;;1.10;99.90;;;;;;5058972;28;20473;-67
2021/12/06 07:31:14;;;;;;;164.70;48.63;;;1.10;99.90;;;;;;5055638;28;20597;-68
2021/12/06 07:33:41;;;;;;;86.50;48.50;;;1.10;99.90;;;;;;5043597;28;20487;-68
2021/12/06 07:36:10;;;;;;;82.37;50.60;;;1.20;99.90;;;;;;5045668;28;20460;-67
2021/12/06 07:38:38;;;;;;;86.97;48.47;;;1.20;99.90;;;;;;5057632;28;20483;-67
2021/12/06 07:41:08;;;;;;;67.73;49.80;;;1.30;99.90;;;;;;5055665;28;20686;-68
2021/12/06 07:43:36;;;;;;;84.07;49.23;;;1.30;99.90;;;;;;5049907;28;20588;-67
2021/12/06 07:46:05;;;;;;;73.03;49.30;;;1.20;99.90;;;;;;5059069;28;20477;-68
2021/12/06 07:48:33;;;;;;;189.20;50.13;;;1.20;99.90;;;;;;5058015;28;20510;-67
2021/12/06 07:51:01;;;;;;;117.93;48.50;;;1.30;99.90;;;;;;5049157;28;20467;-67
2021/12/06 07:53:29;;;;;;;222.50;51.70;;;1.30;99.90;;;;;;5053924;28;20465;-67
2021/12/06 07:55:55;;;;;;;221.30;50.93;;;1.40;99.90;;;;;;5047944;28;20470;-68
2021/12/06 07:58:23;;;;;;;357.30;58.37;;;1.50;99.90;;;;;;5054072;28;20884;-68
2021/12/06 08:00:52;;;;;;;328.53;58.30;;;1.50;99.90;;;;;;5043455;28;20475;-68
2021/12/06 08:03:22;;;;;;;317.10;58.17;;;1.50;99.90;;;;;;5053012;28;20462;-67
2021/12/06 08:05:52;;;;;;;240.20;52.23;;;1.60;99.90;;;;;;5054273;28;20492;-67
2021/12/06 08:08:23;;;;;;;115.27;46.67;;;1.80;99.90;;;;;;5057689;28;20841;-68
2021/12/06 08:10:53;;;;;;;152.40;48.87;;;1.90;99.90;;;;;;5060137;28;20463;-68
2021/12/06 08:13:22;;;;;;;133.17;48.90;;;1.90;99.90;;;;;;5060161;28;20827;-68
2021/12/06 08:15:50;;;;;;;243.57;50.63;;;2.00;99.90;;;;;;5058890;28;20470;-68
2021/12/06 08:18:17;;;;;;;209.53;52.53;;;2.10;99.90;;;;;;5054981;28;20464;-67
2021/12/06 08:20:45;;;;;;;328.37;51.70;;;2.20;99.90;;;;;;5056260;28;20466;-67
2021/12/06 08:23:12;;;;;;;272.17;48.37;;;2.20;99.90;;;;;;5052820;28;20473;-67
2021/12/06 08:25:40;;;;;;;266.10;54.30;;;2.30;99.90;;;;;;5060290;28;20482;-68
2021/12/06 08:28:07;;;;;;;365.73;64.73;;;2.30;99.90;;;;;;5061687;28;20466;-68
2021/12/06 08:30:35;;;;;;;426.83;64.40;;;2.40;99.90;;;;;;5052322;28;20526;-68
2021/12/06 08:33:05;;;;;;;335.90;56.90;;;2.50;99.90;;;;;;5054488;28;20498;-68
2021/12/06 08:35:33;;;;;;;185.67;51.07;;;2.60;99.90;;;;;;5050323;28;20471;-68
2021/12/06 08:38:02;;;;;;;256.37;52.67;;;2.70;99.90;;;;;;5054455;28;20510;-68
2021/12/06 08:40:30;;;;;;;417.37;55.20;;;2.90;99.90;;;;;;5052929;28;20479;-67
2021/12/06 08:42:57;;;;;;;229.77;50.13;;;2.90;99.90;;;;;;5052248;28;20533;-68
2021/12/06 08:45:26;;;;;;;211.50;49.57;;;3.00;99.90;;;;;;5054575;28;20487;-70
2021/12/06 08:47:53;;;;;;;238.00;52.13;;;3.00;99.90;;;;;;5053312;28;20553;-67
2021/12/06 08:50:22;;;;;;;348.70;53.83;;;3.00;99.90;;;;;;5053128;28;20468;-68
2021/12/06 08:52:50;;;;;;;265.27;51.47;;;3.00;99.90;;;;;;5045770;28;20494;-68
2021/12/06 08:55:19;;;;;;;263.10;55.07;;;3.10;99.90;;;;;;5049945;28;20468;-68
2021/12/06 08:57:46;;;;;;;395.43;59.90;;;3.10;99.90;;;;;;5049590;28;20482;-68
2021/12/06 09:00:17;;;;;;;246.47;52.50;;;3.10;99.90;;;;;;5051998;28;20467;-68
2021/12/06 09:02:44;;;;;;;302.50;55.07;;;3.00;99.90;;;;;;5048768;28;20460;-68
2021/12/06 09:05:12;;;;;;;308.80;54.43;;;3.10;99.90;;;;;;5052672;28;20451;-68
2021/12/06 09:07:39;;;;;;;313.87;59.07;;;3.10;99.90;;;;;;5046042;28;20574;-68
2021/12/06 09:10:08;;;;;;;247.30;57.73;;;3.10;99.90;;;;;;5048547;28;20463;-68
2021/12/06 09:12:36;;;;;;;247.70;52.27;;;3.20;99.90;;;;;;5050292;28;20578;-70
2021/12/06 09:15:07;;;;;;;286.87;55.83;;;3.10;99.90;;;;;;5051835;28;20456;-70
2021/12/06 09:17:35;;;;;;;218.17;53.47;;;3.20;99.90;;;;;;5049534;28;20456;-69
2021/12/06 09:20:02;;;;;;;294.30;53.93;;;3.30;99.90;;;;;;5048303;28;20463;-70
2021/12/06 09:22:29;;;;;;;344.30;57.17;;;3.40;99.90;;;;;;5049707;28;20463;-69
2021/12/06 09:24:56;;;;;;;245.10;58.23;;;3.30;99.90;;;;;;5050636;28;20467;-70
2021/12/06 09:27:24;;;;;;;342.33;57.33;;;3.40;99.90;;;;;;5051272;28;20483;-70
2021/12/06 09:29:55;;;;;;;261.67;57.70;;;3.40;99.90;;;;;;5046701;28;20533;-70
2021/12/06 09:32:23;;;;;;;211.13;55.27;;;3.50;99.90;;;;;;5047157;28;20495;-69
2021/12/06 09:34:54;;;;;;;355.63;58.87;;;3.50;99.90;;;;;;5048223;28;20964;-70
2021/12/06 09:37:21;;;;;;;247.13;55.70;;;3.60;99.90;;;;;;5050602;28;20463;-70
2021/12/06 09:39:49;;;;;;;334.93;61.40;;;3.60;99.90;;;;;;5042561;28;20928;-70
2021/12/06 09:42:17;;;;;;;355.13;58.73;;;3.50;99.90;;;;;;5048503;28;20562;-70
2021/12/06 09:44:44;;;;;;;329.93;58.70;;;3.60;99.90;;;;;;5048227;28;20491;-70
2021/12/06 09:47:13;;;;;;;317.97;58.90;;;3.70;99.90;;;;;;5047653;28;20956;-68
2021/12/06 09:49:40;;;;;;;331.70;55.23;;;3.60;99.90;;;;;;5049433;28;20466;-68
2021/12/06 09:52:08;;;;;;;302.23;51.67;;;3.60;99.90;;;;;;5042095;28;20504;-68
2021/12/06 09:54:37;;;;;;;276.27;51.10;;;3.60;99.90;;;;;;5052639;28;20459;-68
2021/12/06 09:57:05;;;;;;;223.90;50.40;;;3.50;99.90;;;;;;5047266;28;20826;-68
2021/12/06 09:59:34;;;;;;;213.90;46.77;;;3.60;99.90;;;;;;5054023;28;20867;-68
2021/12/06 10:02:04;;;;;;;120.40;45.30;;;3.60;99.90;;;;;;5048890;28;20799;-68
2021/12/06 10:04:35;;;;;;;163.63;45.60;;;3.80;99.90;;;;;;5057323;28;20462;-68
2021/12/06 10:07:02;;;;;;;303.23;55.63;;;4.00;99.90;;;;;;5055690;28;20606;-68
2021/12/06 10:09:30;;;;;;;104.07;43.93;;;3.70;99.90;;;;;;5050978;28;20497;-68
2021/12/06 10:11:59;;;;;;;129.43;44.90;;;3.70;99.90;;;;;;5050422;28;20479;-68
2021/12/06 10:14:26;;;;;;;99.53;43.57;;;3.40;99.90;;;;;;5052062;28;20459;-68
2021/12/06 10:16:54;;;;;;;115.33;44.77;;;3.60;99.90;;;;;;5044413;28;20994;-68
2021/12/06 10:19:21;;;;;;;127.43;42.43;;;3.80;99.90;;;;;;5044479;28;20490;-70
2021/12/06 10:21:49;;;;;;;128.00;46.27;;;3.80;99.90;;;;;;5049195;28;21039;-71
2021/12/06 10:24:19;;;;;;;84.40;41.77;;;3.90;99.90;;;;;;5056179;28;20972;-70
2021/12/06 10:26:47;;;;;;;101.33;42.67;;;4.10;99.90;;;;;;5052563;28;20467;-68
2021/12/06 10:29:20;;;;;;;78.50;44.30;;;4.10;99.90;;;;;;5055217;28;20467;-68
2021/12/06 10:31:49;;;;;;;73.10;45.47;;;3.80;99.90;;;;;;5053980;28;20467;-68
2021/12/06 10:34:18;;;;;;;68.10;44.20;;;4.20;99.90;;;;;;5055229;28;20978;-68
2021/12/06 10:36:44;;;;;;;81.80;41.80;;;4.30;99.90;;;;;;5059061;28;20464;-68
2021/12/06 10:39:13;;;;;;;61.30;42.57;;;3.80;99.90;;;;;;5052772;28;20491;-68
2021/12/06 10:41:41;;;;;;;69.83;42.50;;;4.10;99.90;;;;;;5051238;28;20467;-68
2021/12/06 10:44:10;;;;;;;62.17;42.27;;;4.00;99.90;;;;;;5051996;28;20818;-68
2021/12/06 10:46:39;;;;;;;58.43;40.03;;;4.20;99.90;;;;;;5054540;28;20459;-68
2021/12/06 10:49:08;;;;;;;65.63;40.77;;;4.50;99.90;;;;;;5051402;28;20452;-68
2021/12/06 10:51:35;;;;;;;62.23;40.90;;;4.30;99.90;;;;;;5046052;28;20458;-68
2021/12/06 10:54:08;;;;;;;56.53;39.70;;;4.50;99.90;;;;;;5051269;28;20675;-67
2021/12/06 10:56:44;;;;;;;61.37;41.20;;;4.40;99.90;;;;;;5050937;28;20473;-67
2021/12/06 10:59:15;;;;;;;59.70;40.13;;;4.40;99.90;;;;;;5055361;28;20807;-68
2021/12/06 11:01:42;;;;;;;61.37;40.73;;;4.40;99.90;;;;;;5053218;28;20459;-68
2021/12/06 11:04:12;;;;;;;60.60;41.27;;;4.50;99.90;;;;;;5059288;28;20459;-68
2021/12/06 11:06:43;;;;;;;62.77;42.50;;;4.30;99.90;;;;;;5050163;28;20454;-69
2021/12/06 11:09:13;;;;;;;61.57;40.73;;;4.70;99.90;;;;;;5048939;28;20486;-68
2021/12/06 11:11:43;;;;;;;56.33;40.13;;;4.90;99.90;;;;;;5052164;28;20477;-68
2021/12/06 11:14:13;;;;;;;63.60;43.00;;;5.00;99.90;;;;;;5047373;28;20487;-68
2021/12/06 11:16:41;;;;;;;63.40;41.27;;;4.80;99.90;;;;;;5053048;28;20477;-67
2021/12/06 11:19:10;;;;;;;64.47;44.80;;;4.90;99.90;;;;;;5050829;28;20467;-68
2021/12/06 11:21:39;;;;;;;64.43;41.57;;;4.70;99.90;;;;;;5052276;28;20501;-67
2021/12/06 11:24:16;;;;;;;60.90;42.87;;;4.80;99.90;;;;;;5049630;28;20467;-67
2021/12/06 11:26:49;;;;;;;70.63;43.60;;;4.90;99.90;;;;;;5054975;28;20481;-67
2021/12/06 11:29:21;;;;;;;59.43;42.13;;;4.90;99.90;;;;;;5052586;28;20835;-68
2021/12/06 11:31:58;;;;;;;64.43;41.67;;;5.20;99.90;;;;;;5046590;28;20466;-68
2021/12/06 11:34:34;;;;;;;57.70;39.43;;;5.60;99.90;;;;;;5044209;28;20494;-68
2021/12/06 11:37:01;;;;;;;60.20;40.40;;;5.70;99.90;;;;;;5052556;28;20507;-68
2021/12/06 11:39:28;;;;;;;59.53;40.30;;;5.50;99.90;;;;;;5046031;28;20567;-67
2021/12/06 11:41:59;;;;;;;50.53;37.87;;;5.50;99.90;;;;;;5046137;28;20831;-67
2021/12/06 11:44:29;;;;;;;59.17;40.17;;;5.50;99.90;;;;;;5051852;28;21035;-67
2021/12/06 11:47:04;;;;;;;53.63;39.33;;;5.60;99.90;;;;;;5049539;28;20826;-68
2021/12/06 11:49:35;;;;;;;58.40;40.27;;;5.60;99.90;;;;;;5050342;28;21026;-67
2021/12/06 11:52:03;;;;;;;64.60;40.30;;;5.50;99.90;;;;;;5054486;28;20984;-67
2021/12/06 11:54:40;;;;;;;49.57;38.57;;;5.40;99.90;;;;;;5052249;28;20783;-67
2021/12/06 11:57:17;;;;;;;51.17;37.53;;;5.40;99.90;;;;;;5048006;28;20462;-67
2021/12/06 11:59:51;;;;;;;54.27;35.70;;;5.40;99.90;;;;;;5046614;28;20829;-67
2021/12/06 12:02:33;;;;;;;61.23;38.73;;;5.40;99.90;;;;;;5047181;28;21025;-67
2021/12/06 12:05:23;;;;;;;63.50;38.70;;;5.50;99.90;;;;;;5042493;28;20466;-68
2021/12/06 12:08:02;;;;;;;57.47;39.87;;;5.70;99.90;;;;;;5048555;28;21108;-67
2021/12/06 12:10:31;;;;;;;65.17;42.70;;;6.20;99.90;;;;;;5052671;28;20467;-68
2021/12/06 12:13:00;;;;;;;65.07;42.27;;;6.80;99.90;;;;;;5059158;28;20873;-67
2021/12/06 12:15:27;;;;;;;49.73;39.10;;;7.70;99.90;;;;;;5049454;28;20463;-68
2021/12/06 12:17:54;;;;;;;55.30;40.90;;;7.90;99.90;;;;;;5050946;28;20469;-67
2021/12/06 12:20:23;;;;;;;53.27;35.50;;;8.40;99.90;;;;;;5050349;28;20462;-68
2021/12/06 12:22:51;;;;;;;50.93;37.03;;;8.60;99.90;;;;;;5047861;28;20660;-68
2021/12/06 12:25:27;;;;;;;50.57;38.23;;;8.60;99.90;;;;;;5047394;28;20512;-68
2021/12/06 12:28:00;;;;;;;41.50;32.60;;;8.50;99.90;;;;;;5049445;28;20873;-68
2021/12/06 12:30:32;;;;;;;41.67;34.63;;;8.70;99.90;;;;;;5045195;28;20466;-68
2021/12/06 12:33:00;;;;;;;41.13;34.20;;;8.20;99.90;;;;;;5050619;28;20504;-68
2021/12/06 12:35:30;;;;;;;40.63;33.53;;;7.90;99.90;;;;;;5045626;28;20583;-68
2021/12/06 12:37:58;;;;;;;40.60;34.10;;;8.50;99.90;;;;;;5052898;28;20475;-68
2021/12/06 12:40:28;;;;;;;34.77;31.10;;;9.00;99.90;;;;;;5044833;28;20481;-69
2021/12/06 12:43:01;;;;;;;33.33;30.13;;;9.30;99.90;;;;;;5050384;28;20483;-68
2021/12/06 12:45:35;;;;;;;38.87;34.47;;;9.30;99.90;;;;;;5051169;28;21007;-67